createdAt,value
2019-06-07T00:00:40.365Z,3.52
2019-06-07T00:02:46.384Z,4.00
2019-06-07T00:04:53.224Z,4.10
2019-06-07T00:07:01.222Z,3.72
2019-06-07T00:09:10.086Z,3.90
2019-06-07T00:11:20.028Z,3.45
2019-06-07T00:13:24.982Z,4.45
2019-06-07T00:15:31.593Z,3.80
2019-06-07T00:17:38.012Z,3.77
2019-06-07T00:19:44.400Z,3.80
2019-06-07T00:22:15.615Z,3.85
2019-06-07T00:23:58.971Z,3.60
2019-06-07T00:26:05.895Z,4.30
2019-06-07T00:28:13.232Z,4.30
2019-06-07T00:30:39.998Z,4.08
2019-06-07T00:32:30.477Z,4.50
2019-06-07T00:34:36.868Z,4.42
2019-06-07T00:36:43.292Z,4.10
2019-06-07T00:38:49.684Z,4.50
2019-06-07T00:40:56.132Z,4.62
2019-06-07T00:43:03.585Z,3.98
2019-06-07T00:45:11.407Z,3.90
2019-06-07T00:47:23.099Z,4.50
2019-06-07T00:49:40.725Z,4.58
2019-06-07T00:51:49.902Z,4.25
2019-06-07T00:53:43.514Z,5.10
2019-06-07T00:55:50.184Z,4.33
2019-06-07T00:57:57.985Z,4.47
2019-06-07T01:00:06.588Z,4.83
2019-06-07T01:02:14.602Z,4.33
2019-06-07T01:04:23.618Z,4.78
2019-06-07T01:06:29.555Z,4.92
2019-06-07T01:08:37.144Z,4.92
2019-06-07T01:10:58.822Z,5.10
2019-06-07T01:12:51.783Z,4.90
2019-06-07T01:14:58.408Z,5.00
2019-06-07T01:17:41.010Z,4.70
2019-06-07T01:19:36.534Z,5.70
2019-06-07T01:21:42.936Z,4.53
2019-06-07T01:24:10.707Z,5.22
2019-06-07T01:25:57.785Z,4.95
2019-06-07T01:28:04.307Z,5.50
2019-06-07T01:30:13.247Z,5.65
2019-06-07T01:34:27.026Z,5.72
2019-06-07T01:36:33.521Z,5.83
2019-06-07T01:38:39.892Z,6.20
2019-06-07T01:40:46.300Z,5.92
2019-06-07T01:42:52.680Z,6.08
2019-06-07T01:44:59.136Z,5.80
2019-06-07T01:47:05.788Z,6.05
2019-06-07T01:49:12.804Z,6.03
2019-06-07T01:51:20.068Z,5.78
2019-06-07T01:53:29.139Z,6.28
2019-06-07T01:55:34.778Z,6.53
2019-06-07T01:57:48.166Z,6.60
2019-06-07T01:59:49.254Z,6.73
2019-06-07T02:01:55.711Z,7.05
2019-06-07T02:04:03.331Z,6.80
2019-06-07T02:06:10.092Z,7.03
2019-06-07T02:08:16.512Z,7.22
2019-06-07T02:10:26.188Z,6.85
2019-06-07T02:12:40.331Z,6.75
2019-06-07T02:14:39.484Z,6.73
2019-06-07T02:16:45.913Z,6.80
2019-06-07T02:19:01.696Z,7.10
2019-06-07T02:21:01.007Z,8.00
2019-06-07T02:23:07.407Z,7.17
2019-06-07T02:27:24.630Z,7.55
2019-06-07T02:29:33.282Z,6.57
2019-06-07T02:31:39.833Z,7.80
2019-06-07T02:33:47.617Z,7.95
2019-06-07T02:35:54.021Z,7.10
2019-06-07T02:38:00.559Z,7.22
2019-06-07T02:40:09.270Z,7.53
2019-06-07T02:42:15.742Z,7.35
2019-06-07T02:44:24.031Z,7.95
2019-06-07T02:46:40.114Z,7.20
2019-06-07T02:48:40.405Z,7.60
2019-06-07T02:50:46.855Z,8.75
2019-06-07T02:52:53.395Z,8.30
2019-06-07T02:54:59.833Z,7.85
2019-06-07T02:57:06.330Z,8.50
2019-06-07T02:59:12.867Z,7.50
2019-06-07T03:01:19.567Z,7.62
2019-06-07T03:03:28.933Z,7.95
2019-06-07T03:05:38.787Z,8.63
2019-06-07T03:07:46.342Z,7.28
2019-06-07T03:09:53.538Z,8.20
2019-06-07T03:12:03.126Z,9.73
2019-06-07T03:14:12.537Z,8.55
2019-06-07T03:16:21.278Z,8.93
2019-06-07T03:18:45.487Z,8.33
2019-06-07T03:21:04.983Z,9.18
2019-06-07T03:23:04.691Z,9.28
2019-06-07T03:27:35.026Z,9.15
2019-06-07T03:29:28.535Z,13.10
2019-06-07T03:31:41.668Z,10.60
2019-06-07T03:33:45.170Z,10.15
2019-06-07T03:35:50.047Z,10.65
2019-06-07T03:37:56.438Z,11.15
2019-06-07T03:40:02.921Z,10.15
2019-06-07T03:42:09.372Z,11.78
2019-06-07T03:44:15.855Z,11.83
2019-06-07T03:46:22.253Z,10.58
2019-06-07T03:48:30.206Z,13.05
2019-06-07T03:50:41.826Z,12.15
2019-06-07T03:52:45.311Z,12.03
2019-06-07T03:54:51.734Z,20.77
2019-06-07T03:56:58.421Z,12.95
2019-06-07T03:59:06.945Z,11.83
2019-06-07T04:01:13.476Z,12.47
2019-06-07T04:03:33.296Z,13.72
2019-06-07T04:05:28.758Z,13.43
2019-06-07T04:07:43.406Z,13.35
2019-06-07T04:09:45.983Z,12.30
2019-06-07T04:11:52.525Z,12.82
2019-06-07T04:13:58.976Z,13.03
2019-06-07T04:16:07.302Z,13.40
2019-06-07T04:18:13.759Z,14.55
2019-06-07T04:20:20.269Z,12.75
2019-06-07T04:22:26.804Z,13.62
2019-06-07T04:24:38.440Z,13.28
2019-06-07T04:26:43.974Z,13.15
2019-06-07T04:30:58.524Z,12.75
2019-06-07T04:33:04.999Z,13.30
2019-06-07T04:35:11.890Z,12.25
2019-06-07T04:37:19.063Z,11.73
2019-06-07T04:39:29.906Z,13.05
2019-06-07T04:41:40.908Z,13.22
2019-06-07T04:43:50.772Z,13.35
2019-06-07T04:45:59.748Z,10.95
2019-06-07T04:48:08.333Z,12.85
2019-06-07T04:52:20.830Z,12.88
2019-06-07T04:54:31.075Z,12.98
2019-06-07T04:56:41.463Z,13.18
2019-06-07T04:58:45.589Z,13.88
2019-06-07T05:00:59.298Z,14.30
2019-06-07T05:03:02.709Z,13.53
2019-06-07T05:05:09.508Z,12.55
2019-06-07T05:07:15.903Z,12.53
2019-06-07T05:09:22.333Z,13.88
2019-06-07T05:11:33.349Z,12.70
2019-06-07T05:13:43.134Z,13.22
2019-06-07T05:15:47.762Z,13.00
2019-06-07T05:17:54.236Z,11.35
2019-06-07T05:20:00.671Z,13.00
2019-06-07T05:22:07.241Z,12.85
2019-06-07T05:24:13.652Z,13.03
2019-06-07T05:26:21.296Z,13.43
2019-06-07T05:28:27.759Z,13.08
2019-06-07T05:32:49.472Z,14.70
2019-06-07T05:34:55.950Z,13.93
2019-06-07T05:37:11.378Z,13.08
2019-06-07T05:39:12.502Z,12.63
2019-06-07T05:41:19.070Z,12.65
2019-06-07T05:43:28.907Z,12.53
2019-06-07T05:45:39.279Z,12.53
2019-06-07T05:47:50.628Z,11.73
2019-06-07T05:52:00.924Z,12.55
2019-06-07T05:54:07.528Z,12.00
2019-06-07T05:56:14.794Z,12.35
2019-06-07T05:58:22.101Z,11.70
2019-06-07T06:00:31.354Z,11.90
2019-06-07T06:02:56.591Z,11.85
2019-06-07T06:04:49.288Z,11.95
2019-06-07T06:06:54.172Z,11.85
2019-06-07T06:09:13.347Z,11.85
2019-06-07T06:11:08.844Z,11.03
2019-06-07T06:13:15.456Z,11.00
2019-06-07T06:15:41.602Z,10.88
2019-06-07T06:17:30.222Z,11.12
2019-06-07T06:19:40.648Z,11.60
2019-06-07T06:21:46.580Z,10.65
2019-06-07T06:23:54.068Z,10.43
2019-06-07T06:26:00.902Z,10.20
2019-06-07T06:28:12.274Z,10.65
2019-06-07T06:30:16.586Z,13.18
2019-06-07T06:34:31.181Z,10.50
2019-06-07T06:36:39.743Z,9.40
2019-06-07T06:38:47.134Z,10.58
2019-06-07T06:41:13.919Z,8.40
2019-06-07T06:43:02.137Z,8.60
2019-06-07T06:45:12.061Z,9.28
2019-06-07T06:47:18.565Z,9.43
2019-06-07T06:49:25.100Z,9.28
2019-06-07T06:51:31.627Z,9.48
2019-06-07T06:53:40.048Z,9.73
2019-06-07T06:55:48.467Z,9.43
2019-06-07T06:57:54.494Z,10.40
2019-06-07T07:00:00.896Z,8.28
2019-06-07T07:02:07.354Z,7.85
2019-06-07T07:04:14.751Z,9.00
2019-06-07T07:06:26.328Z,8.95
2019-06-07T07:08:31.900Z,8.75
2019-06-07T07:10:43.250Z,8.30
2019-06-07T07:12:52.454Z,8.05
2019-06-07T07:14:59.316Z,8.23
2019-06-07T07:17:05.839Z,7.40
2019-06-07T07:19:12.377Z,7.72
2019-06-07T07:21:18.920Z,7.37
2019-06-07T07:23:25.307Z,7.50
2019-06-07T07:25:32.045Z,8.08
2019-06-07T07:27:38.443Z,6.97
2019-06-07T07:29:49.539Z,6.20
2019-06-07T07:31:56.111Z,6.47
2019-06-07T07:36:23.283Z,6.67
2019-06-07T07:38:18.214Z,12.78
2019-06-07T07:42:32.800Z,6.87
2019-06-07T07:44:40.212Z,7.10
2019-06-07T07:46:46.673Z,7.17
2019-06-07T07:48:54.698Z,6.80
2019-06-07T07:51:03.387Z,7.05
2019-06-07T07:53:10.178Z,6.50
2019-06-07T07:55:18.213Z,5.90
2019-06-07T07:57:24.743Z,6.25
2019-06-07T07:59:42.003Z,5.85
2019-06-07T08:01:40.432Z,6.20
2019-06-07T08:03:48.133Z,5.60
2019-06-07T08:08:05.378Z,6.20
2019-06-07T08:10:10.598Z,5.62
2019-06-07T08:12:17.071Z,5.60
2019-06-07T08:14:24.525Z,6.97
2019-06-07T08:16:30.920Z,5.55
2019-06-07T08:18:37.466Z,5.65
2019-06-07T08:21:04.947Z,5.62
2019-06-07T08:22:58.789Z,4.95
2019-06-07T08:25:04.517Z,5.90
2019-06-07T08:27:26.014Z,6.20
2019-06-07T08:29:18.836Z,5.92
2019-06-07T08:31:25.251Z,5.50
2019-06-07T08:33:31.656Z,5.55
2019-06-07T08:39:59.169Z,4.75
2019-06-07T08:42:15.433Z,5.53
2019-06-07T08:44:23.189Z,5.40
2019-06-07T08:46:20.814Z,5.50
2019-06-07T08:48:29.961Z,5.10
2019-06-07T08:50:35.374Z,5.45
2019-06-07T08:52:41.837Z,5.05
2019-06-07T08:54:48.314Z,5.05
2019-06-07T08:57:06.652Z,5.58
2019-06-07T08:59:10.840Z,5.22
2019-06-07T09:01:12.550Z,5.30
2019-06-07T09:03:20.576Z,6.37
2019-06-07T09:05:27.675Z,5.10
2019-06-07T09:07:34.148Z,5.25
2019-06-07T09:09:40.716Z,5.55
2019-06-07T09:11:48.647Z,5.00
2019-06-07T09:13:57.195Z,5.60
2019-06-07T09:16:08.080Z,4.97
2019-06-07T09:20:35.563Z,4.62
2019-06-07T09:22:28.847Z,5.05
2019-06-07T09:24:35.239Z,5.00
2019-06-07T09:26:41.640Z,4.78
2019-06-07T09:28:48.694Z,5.17
2019-06-07T09:30:55.872Z,4.92
2019-06-07T09:33:06.671Z,4.97
2019-06-07T09:35:17.267Z,5.40
2019-06-07T09:38:03.763Z,6.30
2019-06-07T09:39:31.071Z,5.62
2019-06-07T09:41:47.618Z,5.55
2019-06-07T09:44:01.808Z,5.67
2019-06-07T09:45:54.080Z,5.35
2019-06-07T09:48:04.429Z,5.50
2019-06-07T09:50:12.191Z,5.55
2019-06-07T09:55:03.759Z,6.12
2019-06-07T09:56:30.952Z,5.58
2019-06-07T09:58:54.202Z,5.28
2019-06-07T10:00:45.516Z,5.08
2019-06-07T10:02:51.939Z,5.60
2019-06-07T10:05:01.668Z,6.62
2019-06-07T10:07:27.146Z,5.55
2019-06-07T10:11:25.062Z,5.60
2019-06-07T10:13:31.457Z,5.67
2019-06-07T10:15:37.962Z,5.83
2019-06-07T10:17:44.382Z,4.87
2019-06-07T10:19:50.782Z,5.42
2019-06-07T10:21:57.169Z,5.55
2019-06-07T10:24:03.647Z,5.50
2019-06-07T10:26:10.230Z,4.65
2019-06-07T10:28:16.690Z,4.87
2019-06-07T10:30:24.282Z,4.40
2019-06-07T10:32:30.751Z,4.58
2019-06-07T10:34:37.204Z,4.72
2019-06-07T10:36:43.748Z,4.70
2019-06-07T10:38:50.360Z,5.22
2019-06-07T10:40:56.773Z,5.00
2019-06-07T10:43:03.245Z,5.05
2019-06-07T10:45:12.180Z,5.00
2019-06-07T10:47:18.348Z,5.25
2019-06-07T10:49:24.732Z,4.95
2019-06-07T10:51:31.847Z,4.90
2019-06-07T10:53:38.332Z,4.60
2019-06-07T10:55:44.810Z,4.30
2019-06-07T10:57:51.210Z,4.80
2019-06-07T10:59:57.739Z,4.67
2019-06-07T11:02:05.607Z,3.83
2019-06-07T11:04:13.815Z,4.50
2019-06-07T11:06:20.388Z,5.22
2019-06-07T11:08:26.925Z,3.90
2019-06-07T11:10:33.339Z,4.53
2019-06-07T11:12:39.793Z,4.67
2019-06-07T11:14:46.423Z,4.12
2019-06-07T11:16:54.424Z,4.55
2019-06-07T11:19:00.893Z,4.20
2019-06-07T11:21:07.974Z,4.22
2019-06-07T11:23:14.607Z,4.87
2019-06-07T11:25:21.136Z,4.65
2019-06-07T11:27:28.492Z,4.75
2019-06-07T11:29:34.928Z,4.37
2019-06-07T11:31:41.347Z,4.20
2019-06-07T11:33:47.819Z,4.22
2019-06-07T11:35:54.299Z,4.67
2019-06-07T11:38:02.927Z,4.78
2019-06-07T11:40:27.813Z,4.28
2019-06-07T11:42:20.035Z,3.95
2019-06-07T11:44:26.678Z,4.25
2019-06-07T11:46:33.215Z,4.30
2019-06-07T11:48:39.634Z,4.33
2019-06-07T11:50:46.329Z,4.22
2019-06-07T11:52:52.819Z,4.35
2019-06-07T11:54:59.217Z,4.10
2019-06-07T11:57:06.836Z,5.20
2019-06-07T11:59:13.462Z,4.60
2019-06-07T12:01:19.882Z,4.65
2019-06-07T12:03:26.293Z,4.15
2019-06-07T12:05:32.669Z,4.53
2019-06-07T12:07:39.156Z,3.98
2019-06-07T12:09:56.018Z,4.75
2019-06-07T12:11:53.939Z,4.50
2019-06-07T12:14:01.544Z,4.47
2019-06-07T12:16:09.070Z,4.55
2019-06-07T12:18:15.689Z,3.77
2019-06-07T12:20:22.216Z,3.98
2019-06-07T12:22:28.694Z,3.72
2019-06-07T12:24:35.091Z,4.05
2019-06-07T12:26:41.488Z,3.40
2019-06-07T12:28:47.915Z,3.55
2019-06-07T12:30:55.235Z,3.72
2019-06-07T12:33:01.754Z,3.77
2019-06-07T12:35:09.728Z,4.40
2019-06-07T12:37:19.351Z,4.28
2019-06-07T12:39:24.215Z,3.67
2019-06-07T12:41:30.691Z,3.77
2019-06-07T12:43:37.065Z,3.85
2019-06-07T12:45:45.417Z,3.67
2019-06-07T12:47:51.582Z,3.40
2019-06-07T12:49:57.984Z,3.50
2019-06-07T12:52:04.644Z,3.77
2019-06-07T12:54:11.066Z,3.12
2019-06-07T12:56:17.788Z,5.62
2019-06-07T12:58:33.661Z,4.25
2019-06-07T13:00:32.798Z,3.52
2019-06-07T13:02:39.395Z,3.85
2019-06-07T13:04:45.783Z,3.60
2019-06-07T13:06:52.197Z,3.55
2019-06-07T13:08:58.576Z,3.52
2019-06-07T13:11:16.011Z,3.60
2019-06-07T13:13:15.727Z,3.72
2019-06-07T13:15:24.506Z,3.35
2019-06-07T13:17:30.619Z,3.50
2019-06-07T13:19:37.052Z,3.35
2019-06-07T13:21:43.489Z,3.67
2019-06-07T13:23:49.879Z,3.77
2019-06-07T13:25:56.294Z,3.20
2019-06-07T13:28:02.691Z,3.10
2019-06-07T13:30:11.303Z,3.40
2019-06-07T13:32:17.670Z,3.35
2019-06-07T13:34:24.329Z,3.30
2019-06-07T13:36:31.267Z,4.45
2019-06-07T13:38:37.660Z,3.42
2019-06-07T13:40:46.403Z,4.37
2019-06-07T13:42:52.940Z,3.70
2019-06-07T13:44:59.347Z,3.70
2019-06-07T13:47:06.100Z,3.40
2019-06-07T13:49:12.486Z,3.22
2019-06-07T13:51:20.594Z,3.83
2019-06-07T13:53:27.008Z,4.28
2019-06-07T13:55:34.029Z,4.10
2019-06-07T13:57:40.508Z,3.47
2019-06-07T13:59:47.589Z,3.40
2019-06-07T14:01:54.010Z,3.90
2019-06-07T14:04:00.549Z,3.60
2019-06-07T14:06:08.045Z,3.92
2019-06-07T14:08:14.509Z,3.20
2019-06-07T14:10:21.667Z,3.70
2019-06-07T14:12:28.274Z,3.75
2019-06-07T14:14:34.724Z,3.25
2019-06-07T14:16:41.141Z,3.15
2019-06-07T14:18:47.780Z,3.80
2019-06-07T14:20:54.167Z,3.52
2019-06-07T14:23:02.155Z,3.60
2019-06-07T14:25:12.142Z,3.90
2019-06-07T14:27:18.608Z,3.37
2019-06-07T14:29:25.533Z,3.42
2019-06-07T14:31:32.325Z,3.60
2019-06-07T14:33:38.954Z,4.08
2019-06-07T14:35:46.525Z,4.83
2019-06-07T14:37:53.006Z,4.10
2019-06-07T14:39:59.481Z,3.92
2019-06-07T14:42:10.019Z,3.80
2019-06-07T14:44:14.094Z,3.95
2019-06-07T14:46:20.566Z,3.77
2019-06-07T14:48:28.023Z,4.50
2019-06-07T14:50:34.626Z,4.22
2019-06-07T14:52:41.010Z,4.20
2019-06-07T14:54:47.767Z,3.77
2019-06-07T14:56:54.192Z,3.87
2019-06-07T14:59:00.654Z,3.90
2019-06-07T15:01:07.166Z,3.98
2019-06-07T15:03:13.720Z,3.87
2019-06-07T15:05:24.922Z,3.87
2019-06-07T15:07:32.921Z,5.17
2019-06-07T15:09:39.468Z,3.90
2019-06-07T15:11:45.947Z,4.40
2019-06-07T15:13:52.496Z,3.75
2019-06-07T15:15:58.942Z,3.83
2019-06-07T15:18:06.493Z,3.65
2019-06-07T15:20:13.287Z,3.80
2019-06-07T15:22:19.996Z,5.83
2019-06-07T15:24:26.390Z,4.00
2019-06-07T15:26:32.853Z,3.83
2019-06-07T15:28:39.236Z,3.72
2019-06-07T15:30:53.624Z,3.85
2019-06-07T15:33:04.435Z,3.90
2019-06-07T15:35:12.642Z,3.80
2019-06-07T15:37:21.121Z,3.75
2019-06-07T15:39:28.468Z,3.87
2019-06-07T15:41:37.344Z,3.87
2019-06-07T15:43:44.033Z,3.85
2019-06-07T15:45:50.525Z,3.90
2019-06-07T15:47:58.191Z,4.08
2019-06-07T15:50:10.710Z,7.73
2019-06-07T15:52:17.394Z,4.33
2019-06-07T15:54:27.172Z,3.92
2019-06-07T15:56:37.085Z,4.05
2019-06-07T15:58:43.630Z,3.70
2019-06-07T16:00:50.297Z,3.50
2019-06-07T16:02:58.608Z,3.72
2019-06-07T16:05:16.437Z,3.83
2019-06-07T16:07:24.355Z,4.28
2019-06-07T16:09:32.486Z,3.62
2019-06-07T16:11:39.067Z,4.08
2019-06-07T16:13:47.250Z,3.83
2019-06-07T16:15:55.412Z,3.65
2019-06-07T16:18:02.117Z,4.20
2019-06-07T16:20:09.955Z,3.45
2019-06-07T16:22:16.569Z,3.70
2019-06-07T16:24:24.473Z,3.42
2019-06-07T16:26:31.513Z,3.67
2019-06-07T16:28:38.302Z,3.75
2019-06-07T16:30:44.882Z,4.33
2019-06-07T16:32:51.704Z,3.67
2019-06-07T16:34:58.110Z,3.90
2019-06-07T16:37:05.014Z,4.33
2019-06-07T16:39:11.552Z,4.37
2019-06-07T16:41:18.135Z,3.95
2019-06-07T16:43:24.614Z,4.25
2019-06-07T16:45:31.216Z,4.05
2019-06-07T16:47:42.997Z,4.10
2019-06-07T16:49:49.196Z,4.22
2019-06-07T16:51:56.934Z,3.70
2019-06-07T16:54:07.952Z,4.22
2019-06-07T16:56:13.906Z,4.22
2019-06-07T16:58:20.428Z,4.10
2019-06-07T17:00:28.613Z,4.40
2019-06-07T17:02:35.082Z,4.78
2019-06-07T17:04:41.844Z,4.35
2019-06-07T17:06:48.347Z,5.10
2019-06-07T17:08:56.607Z,5.15
2019-06-07T17:11:03.008Z,6.10
2019-06-07T17:13:09.597Z,5.33
2019-06-07T17:15:18.954Z,5.05
2019-06-07T17:17:25.351Z,5.00
2019-06-07T17:19:32.012Z,5.10
2019-06-07T17:21:39.263Z,5.17
2019-06-07T17:23:45.923Z,5.40
2019-06-07T17:25:52.588Z,5.12
2019-06-07T17:27:59.160Z,5.55
2019-06-07T17:30:11.538Z,5.53
2019-06-07T17:32:18.025Z,5.45
2019-06-07T17:34:24.494Z,5.53
2019-06-07T17:36:30.959Z,6.58
2019-06-07T17:38:37.347Z,5.78
2019-06-07T17:40:44.954Z,6.22
2019-06-07T17:42:52.672Z,5.80
2019-06-07T17:44:59.081Z,6.35
2019-06-07T17:47:05.542Z,8.15
2019-06-07T17:49:15.459Z,7.10
2019-06-07T17:51:21.917Z,6.50
2019-06-07T17:53:30.500Z,6.08
2019-06-07T17:55:36.581Z,6.35
2019-06-07T17:57:44.310Z,6.90
2019-06-07T17:59:51.020Z,6.53
2019-06-07T18:02:14.218Z,8.63
2019-06-07T18:04:06.949Z,6.87
2019-06-07T18:06:16.111Z,6.97
2019-06-07T18:08:25.604Z,7.60
2019-06-07T18:10:38.679Z,7.50
2019-06-07T18:12:46.027Z,8.95
2019-06-07T18:14:53.941Z,7.15
2019-06-07T18:17:00.628Z,8.20
2019-06-07T18:19:07.331Z,7.30
2019-06-07T18:21:13.809Z,7.78
2019-06-07T18:23:20.300Z,8.70
2019-06-07T18:25:26.762Z,8.78
2019-06-07T18:27:33.302Z,8.70
2019-06-07T18:29:40.829Z,8.65
2019-06-07T18:31:47.237Z,8.38
2019-06-07T18:33:55.079Z,8.00
2019-06-07T18:36:01.750Z,8.00
2019-06-07T18:38:10.791Z,7.00
2019-06-07T18:40:16.662Z,7.47
2019-06-07T18:42:23.085Z,7.12
2019-06-07T18:44:29.680Z,7.47
2019-06-07T18:46:36.074Z,8.05
2019-06-07T18:48:42.534Z,9.80
2019-06-07T18:50:49.041Z,9.20
2019-06-07T18:52:55.649Z,9.35
2019-06-07T18:55:02.126Z,8.93
2019-06-07T18:57:08.738Z,9.13
2019-06-07T18:59:15.329Z,8.50
2019-06-07T19:01:23.821Z,9.23
2019-06-07T19:03:29.911Z,9.58
2019-06-07T19:05:36.893Z,9.23
2019-06-07T19:07:43.821Z,11.30
2019-06-07T19:09:50.608Z,9.25
2019-06-07T19:11:57.163Z,10.10
2019-06-07T19:14:03.705Z,11.68
2019-06-07T19:16:10.249Z,11.30
2019-06-07T19:18:16.639Z,11.50
2019-06-07T19:20:23.457Z,10.63
2019-06-07T19:22:29.914Z,9.95
2019-06-07T19:24:36.298Z,10.23
2019-06-07T19:26:42.748Z,12.30
2019-06-07T19:28:49.198Z,12.55
2019-06-07T19:30:57.151Z,10.38
2019-06-07T19:33:03.814Z,10.93
2019-06-07T19:35:11.104Z,10.20
2019-06-07T19:37:17.692Z,10.88
2019-06-07T19:39:24.103Z,10.53
2019-06-07T19:41:30.515Z,10.55
2019-06-07T19:43:36.938Z,9.25
2019-06-07T19:45:43.401Z,10.30
2019-06-07T19:47:49.869Z,9.93
2019-06-07T19:49:56.744Z,9.03
2019-06-07T19:52:03.318Z,9.95
2019-06-07T19:54:09.740Z,9.73
2019-06-07T19:56:16.258Z,8.85
2019-06-07T19:58:22.658Z,9.38
2019-06-07T20:00:29.286Z,9.30
2019-06-07T20:02:36.130Z,9.63
2019-06-07T20:04:42.609Z,9.85
2019-06-07T20:06:49.993Z,10.23
2019-06-07T20:08:56.616Z,10.05
2019-06-07T20:11:03.057Z,10.93
2019-06-07T20:13:09.632Z,10.18
2019-06-07T20:15:28.420Z,11.53
2019-06-07T20:17:25.754Z,12.07
2019-06-07T20:19:32.317Z,11.73
2019-06-07T20:21:38.785Z,12.03
2019-06-07T20:23:45.272Z,11.55
2019-06-07T20:25:51.763Z,9.68
2019-06-07T20:27:59.658Z,10.95
2019-06-07T20:30:12.695Z,10.18
2019-06-07T20:32:23.000Z,10.28
2019-06-07T20:34:34.405Z,10.10
2019-06-07T20:36:45.824Z,9.78
2019-06-07T20:38:52.735Z,10.20
2019-06-07T20:41:01.130Z,10.30
2019-06-07T20:43:09.294Z,10.95
2019-06-07T20:45:32.377Z,11.00
2019-06-07T20:47:25.802Z,10.85
2019-06-07T20:49:32.321Z,11.05
2019-06-07T20:51:40.550Z,10.53
2019-06-07T20:53:48.088Z,11.55
2019-06-07T20:55:54.590Z,10.25
2019-06-07T20:58:03.780Z,10.70
2019-06-07T21:00:21.435Z,10.43
2019-06-07T21:02:23.832Z,10.50
2019-06-07T21:04:30.283Z,11.28
2019-06-07T21:06:36.799Z,10.93
2019-06-07T21:08:44.465Z,10.85
2019-06-07T21:10:50.942Z,11.83
2019-06-07T21:12:57.542Z,10.05
2019-06-07T21:15:10.751Z,10.32
2019-06-07T21:17:15.691Z,10.03
2019-06-07T21:19:23.362Z,10.55
2019-06-07T21:21:30.982Z,10.90
2019-06-07T21:23:37.438Z,11.03
2019-06-07T21:25:43.963Z,10.82
2019-06-07T21:27:50.383Z,10.55
2019-06-07T21:29:57.906Z,11.03
2019-06-07T21:32:05.439Z,10.70
2019-06-07T21:34:14.090Z,10.88
2019-06-07T21:36:20.372Z,11.28
2019-06-07T21:38:28.642Z,10.55
2019-06-07T21:40:35.112Z,10.75
2019-06-07T21:42:41.505Z,10.68
2019-06-07T21:44:47.985Z,10.20
2019-06-07T21:46:54.403Z,9.85
2019-06-07T21:49:02.125Z,10.10
2019-06-07T21:51:08.730Z,10.03
2019-06-07T21:53:15.166Z,10.72
2019-06-07T21:55:21.583Z,10.32
2019-06-07T21:57:28.110Z,15.40
2019-06-07T21:59:34.633Z,10.00
2019-06-07T22:01:41.322Z,10.10
2019-06-07T22:03:48.192Z,10.60
2019-06-07T22:05:56.341Z,10.28
2019-06-07T22:08:03.776Z,9.95
2019-06-07T22:10:10.767Z,10.98
2019-06-07T22:12:17.242Z,10.13
2019-06-07T22:14:23.664Z,9.80
2019-06-07T22:16:30.074Z,10.48
2019-06-07T22:18:36.616Z,10.50
2019-06-07T22:20:43.189Z,10.45
2019-06-07T22:22:49.623Z,13.58
2019-06-07T22:24:56.058Z,10.38
2019-06-07T22:27:02.470Z,11.22
2019-06-07T22:29:10.248Z,10.85
2019-06-07T22:31:17.463Z,10.38
2019-06-07T22:33:23.881Z,10.18
2019-06-07T22:35:30.279Z,10.03
2019-06-07T22:37:36.885Z,11.08
2019-06-07T22:39:43.447Z,10.88
2019-06-07T22:41:50.959Z,11.15
2019-06-07T22:43:57.489Z,10.82
2019-06-07T22:46:04.026Z,10.88
2019-06-07T22:48:11.340Z,10.43
2019-06-07T22:50:19.745Z,10.28
2019-06-07T22:52:26.170Z,11.65
2019-06-07T22:54:32.607Z,11.12
2019-06-07T22:56:40.653Z,11.75
2019-06-07T22:58:47.114Z,10.88
2019-06-07T23:00:53.606Z,11.33
2019-06-07T23:03:00.938Z,11.73
2019-06-07T23:05:08.532Z,11.25
2019-06-07T23:07:15.086Z,11.60
2019-06-07T23:09:22.455Z,11.18
2019-06-07T23:11:29.006Z,12.53
2019-06-07T23:13:35.592Z,12.18
2019-06-07T23:15:42.140Z,11.00
2019-06-07T23:17:48.700Z,12.37
2019-06-07T23:19:55.122Z,11.85
2019-06-07T23:22:01.647Z,11.65
2019-06-07T23:24:08.119Z,11.85
2019-06-07T23:26:14.669Z,12.55
2019-06-07T23:28:21.100Z,11.85
2019-06-07T23:30:27.581Z,12.78
2019-06-07T23:32:33.973Z,12.63
2019-06-07T23:34:40.415Z,12.68
2019-06-07T23:36:46.890Z,13.00
2019-06-07T23:38:53.366Z,12.23
2019-06-07T23:40:59.810Z,12.45
2019-06-07T23:43:06.263Z,13.03
2019-06-07T23:45:13.812Z,13.43
2019-06-07T23:47:22.032Z,12.85
2019-06-07T23:49:28.718Z,13.80
2019-06-07T23:51:35.206Z,13.70
2019-06-07T23:53:41.655Z,13.70
2019-06-07T23:55:48.102Z,14.07
2019-06-07T23:57:55.758Z,14.10
